Time;durP1;ratioP1;P1;durP2;ratioP2;P2;SDS_P1;SDS_P2;PMS_P1;PMS_P2;Temp;Humidity;BMP_temperature;BMP_pressure;BME280_temperature;BME280_humidity;BME280_pressure;Samples;Min_cycle;Max_cycle;Signal;HPM_P1;HPM_P2
2021/03/03 00:01:28;;;;;;;30.38;12.43;;;;;;;22.09;17.11;99724.25;5023196;28;20037;-93
2021/03/03 00:03:54;;;;;;;30.30;12.20;;;;;;;21.71;17.80;99710.53;5030048;28;20462;-94
2021/03/03 00:06:20;;;;;;;32.75;12.88;;;;;;;21.72;17.86;99709.38;5024905;28;20120;-94
2021/03/03 00:08:46;;;;;;;30.67;12.00;;;;;;;21.99;17.48;99713.75;5015462;28;20042;-93
2021/03/03 00:11:13;;;;;;;32.80;14.27;;;;;;;22.30;16.94;99713.31;5023804;28;20168;-93
2021/03/03 00:13:39;;;;;;;28.98;12.07;;;;;;;22.60;16.35;99716.03;5016146;28;20445;-93
2021/03/03 00:16:05;;;;;;;28.85;11.68;;;;;;;22.52;16.63;99719.97;5024087;28;20035;-93
2021/03/03 00:18:32;;;;;;;28.95;12.15;;;;;;;22.65;16.30;99710.94;5020437;28;20045;-93
2021/03/03 00:20:58;;;;;;;39.30;15.55;;;;;;;22.82;16.46;99703.06;5016620;28;20026;-93
2021/03/03 00:23:24;;;;;;;53.15;20.15;;;;;;;22.82;16.38;99705.88;5016933;28;20040;-93
2021/03/03 00:25:50;;;;;;;39.67;17.58;;;;;;;22.84;16.29;99697.88;5015598;28;20112;-93
2021/03/03 00:28:16;;;;;;;34.47;15.68;;;;;;;22.93;16.23;99703.97;5020661;28;20103;-94
2021/03/03 00:30:42;;;;;;;36.47;15.48;;;;;;;23.05;15.97;99695.28;5015406;28;20034;-92
2021/03/03 00:33:08;;;;;;;41.28;15.55;;;;;;;22.99;15.69;99697.63;5020296;28;20032;-92
2021/03/03 00:35:34;;;;;;;39.63;16.52;;;;;;;22.87;15.79;99689.50;5032708;28;20394;-93
2021/03/03 00:38:00;;;;;;;35.35;16.45;;;;;;;22.78;15.74;99688.25;5019976;28;20041;-91
2021/03/03 00:40:27;;;;;;;42.03;16.30;;;;;;;22.55;16.16;99693.97;5018159;28;20033;-91
2021/03/03 00:42:53;;;;;;;35.65;14.77;;;;;;;22.44;16.07;99693.88;5019522;28;20144;-90
2021/03/03 00:45:19;;;;;;;31.20;12.75;;;;;;;22.34;15.90;99700.16;5019526;28;20021;-90
2021/03/03 00:47:45;;;;;;;30.15;14.50;;;;;;;22.32;15.95;99699.75;5015623;28;20135;-89
2021/03/03 00:50:11;;;;;;;27.42;12.50;;;;;;;22.45;16.17;99689.09;5015724;28;20044;-90
2021/03/03 00:52:37;;;;;;;30.63;13.13;;;;;;;22.35;16.44;99693.41;5014835;28;20030;-90
2021/03/03 00:55:04;;;;;;;33.55;12.95;;;;;;;22.37;16.10;99696.63;5017765;28;20033;-90
2021/03/03 00:57:30;;;;;;;35.92;13.85;;;;;;;22.00;16.52;99693.00;5015508;28;20030;-90
2021/03/03 00:59:56;;;;;;;35.45;14.93;;;;;;;21.73;16.87;99691.41;5014739;28;20060;-90
2021/03/03 01:02:22;;;;;;;28.25;12.20;;;;;;;21.68;17.04;99681.34;5026476;28;20029;-90
2021/03/03 01:04:48;;;;;;;28.05;11.85;;;;;;;22.00;16.74;99684.59;5017063;28;20037;-91
2021/03/03 01:07:15;;;;;;;36.00;12.32;;;;;;;22.25;16.38;99688.47;5015700;28;20559;-90
2021/03/03 01:09:41;;;;;;;31.55;13.75;;;;;;;22.44;16.25;99679.09;5022441;28;20037;-90
2021/03/03 01:12:07;;;;;;;30.85;12.35;;;;;;;22.30;16.01;99681.72;5018101;28;20083;-91
2021/03/03 01:14:33;;;;;;;23.88;11.15;;;;;;;22.31;15.84;99686.94;5015925;28;20103;-90
2021/03/03 01:17:00;;;;;;;25.35;11.23;;;;;;;22.42;16.16;99679.47;5017349;28;20151;-90
2021/03/03 01:19:26;;;;;;;34.50;12.90;;;;;;;22.27;16.07;99668.50;5019257;28;20029;-90
2021/03/03 01:21:52;;;;;;;33.00;13.63;;;;;;;21.60;16.84;99676.06;5019306;28;20133;-90
2021/03/03 01:24:18;;;;;;;33.40;14.18;;;;;;;21.39;17.44;99665.41;5020331;28;20041;-90
2021/03/03 01:26:44;;;;;;;29.50;11.93;;;;;;;21.54;17.32;99669.97;5013254;28;20129;-90
2021/03/03 01:29:10;;;;;;;31.48;13.32;;;;;;;21.35;17.11;99668.13;5025503;28;20066;-91
2021/03/03 01:31:36;;;;;;;28.65;12.38;;;;;;;21.50;17.34;99663.53;5022047;28;20071;-91
2021/03/03 01:34:03;;;;;;;30.33;12.18;;;;;;;21.40;17.21;99660.63;5012804;28;20040;-91
2021/03/03 01:36:29;;;;;;;29.10;11.90;;;;;;;21.61;16.77;99667.28;5021209;28;20532;-91
2021/03/03 01:38:55;;;;;;;26.80;10.98;;;;;;;21.84;16.67;99664.44;5014112;28;20042;-91
2021/03/03 01:41:21;;;;;;;27.33;12.35;;;;;;;22.11;16.34;99663.16;5014388;28;20389;-91
2021/03/03 01:43:47;;;;;;;29.55;12.20;;;;;;;22.28;15.99;99665.34;5015360;28;20033;-91
2021/03/03 01:46:13;;;;;;;35.60;12.43;;;;;;;22.23;16.07;99656.47;5016581;28;20498;-90
2021/03/03 01:48:39;;;;;;;29.13;12.52;;;;;;;22.23;16.43;99657.28;5018652;28;20486;-91
2021/03/03 01:51:06;;;;;;;33.20;13.07;;;;;;;22.02;16.52;99660.66;5029053;28;20026;-91
2021/03/03 01:53:33;;;;;;;24.38;11.02;;;;;;;22.11;16.34;99665.94;5020279;28;20501;-91
2021/03/03 01:55:59;;;;;;;28.10;12.95;;;;;;;22.19;16.47;99664.84;5023987;28;20022;-91
2021/03/03 01:58:25;;;;;;;33.78;13.20;;;;;;;21.86;16.68;99656.47;5019923;28;20565;-91
2021/03/03 02:00:51;;;;;;;34.15;14.63;;;;;;;21.37;17.20;99653.78;5021270;28;20065;-91
2021/03/03 02:03:17;;;;;;;33.83;14.02;;;;;;;20.83;17.90;99648.56;5015999;28;20029;-92
2021/03/03 02:05:44;;;;;;;36.13;14.88;;;;;;;20.75;17.76;99643.25;5018736;28;20037;-92
2021/03/03 02:08:22;;;;;;;32.30;14.23;;;;;;;20.68;17.84;99641.94;5022574;28;20050;-92
2021/03/03 02:11:18;;;;;;;30.10;12.00;;;;;;;20.94;17.29;99646.72;5043323;28;20149;-91
2021/03/03 02:13:49;;;;;;;35.50;15.10;;;;;;;21.55;16.82;99651.22;5017848;28;20053;-91
2021/03/03 02:16:17;;;;;;;42.08;17.58;;;;;;;21.62;16.76;99645.72;5026187;28;20037;-90
2021/03/03 02:18:44;;;;;;;26.15;12.90;;;;;;;21.48;17.15;99645.53;5017543;28;20034;-91
2021/03/03 02:21:30;;;;;;;30.48;12.18;;;;;;;21.61;16.91;99639.34;5027474;28;20026;-91
2021/03/03 02:24:06;;;;;;;35.65;14.57;;;;;;;21.66;16.55;99632.59;5019907;28;20037;-90
2021/03/03 02:26:34;;;;;;;36.83;14.80;;;;;;;21.15;17.27;99626.72;5022565;28;20033;-91
2021/03/03 02:29:07;;;;;;;35.83;15.48;;;;;;;20.94;17.46;99627.19;5024892;28;20064;-91
2021/03/03 02:31:34;;;;;;;38.13;15.48;;;;;;;21.06;17.43;99629.81;5018361;28;20105;-91
2021/03/03 02:34:03;;;;;;;38.38;13.55;;;;;;;21.04;17.13;99623.78;5027228;28;20053;-91
2021/03/03 02:36:30;;;;;;;36.70;15.43;;;;;;;21.28;16.78;99620.53;5022606;28;20112;-91
2021/03/03 02:38:58;;;;;;;44.95;16.65;;;;;;;21.04;17.01;99621.00;5026976;28;20034;-90
2021/03/03 02:41:24;;;;;;;40.15;13.68;;;;;;;20.97;17.34;99620.06;5018285;28;20091;-91
2021/03/03 02:43:51;;;;;;;34.00;12.60;;;;;;;20.98;17.31;99619.66;5026177;28;20353;-91
2021/03/03 02:46:18;;;;;;;32.85;14.07;;;;;;;21.31;16.94;99617.00;5023681;28;20580;-92
2021/03/03 02:48:48;;;;;;;36.17;14.27;;;;;;;21.38;16.77;99618.28;5023016;28;20125;-92
2021/03/03 02:51:14;;;;;;;30.60;14.25;;;;;;;21.24;16.90;99611.31;5022930;28;20041;-92
2021/03/03 02:53:41;;;;;;;32.97;13.50;;;;;;;21.20;16.81;99613.25;5027090;28;20036;-92
2021/03/03 02:56:08;;;;;;;35.50;13.30;;;;;;;21.18;16.81;99612.00;5025813;28;20029;-92
2021/03/03 02:58:35;;;;;;;41.00;14.20;;;;;;;21.18;16.89;99617.59;5023143;28;20471;-92
2021/03/03 03:01:03;;;;;;;33.75;14.73;;;;;;;21.30;16.88;99620.97;5023632;28;20109;-92
2021/03/03 03:03:41;;;;;;;32.60;13.65;;;;;;;21.47;16.54;99614.00;5026025;28;20038;-91
2021/03/03 03:06:16;;;;;;;38.03;15.25;;;;;;;21.69;16.23;99613.09;5022264;28;20041;-92
2021/03/03 03:08:43;;;;;;;37.22;14.05;;;;;;;21.68;16.57;99621.88;5028808;28;20120;-92
2021/03/03 03:11:14;;;;;;;38.03;13.90;;;;;;;21.40;16.67;99616.69;5027715;28;20045;-92
2021/03/03 03:13:41;;;;;;;;;;;;;;;20.69;17.56;99617.63;5033478;28;20037;-92
2021/03/03 03:16:10;;;;;;;35.72;13.05;;;;;;;20.74;17.77;99614.53;5020150;28;19924;-93
2021/03/03 03:18:48;;;;;;;34.08;13.55;;;;;;;20.79;17.18;99611.41;5019048;28;20042;-92
2021/03/03 03:21:16;;;;;;;32.45;14.07;;;;;;;21.02;17.09;99608.56;5025036;28;20042;-91
2021/03/03 03:23:45;;;;;;;35.42;13.98;;;;;;;21.33;16.60;99609.03;5019672;28;20073;-91
2021/03/03 03:26:11;;;;;;;38.15;15.40;;;;;;;21.44;16.44;99602.78;5025054;28;20382;-91
2021/03/03 03:28:38;;;;;;;33.70;13.23;;;;;;;21.06;16.91;99603.84;5020922;28;20123;-91
2021/03/03 03:31:09;;;;;;;30.48;12.57;;;;;;;21.15;17.11;99604.38;5021596;28;20057;-91
2021/03/03 03:33:36;;;;;;;31.45;13.27;;;;;;;21.39;16.83;99598.34;5025649;28;20510;-91
2021/03/03 03:36:03;;;;;;;38.65;15.07;;;;;;;21.59;16.38;99596.97;5025032;28;20115;-91
2021/03/03 03:38:33;;;;;;;34.25;15.32;;;;;;;21.27;16.51;99601.38;5022661;28;20351;-91
2021/03/03 03:41:05;;;;;;;39.50;14.65;;;;;;;20.96;16.72;99596.91;5016293;28;20594;-92
2021/03/03 03:43:33;;;;;;;34.40;14.98;;;;;;;21.06;16.74;99590.69;5022277;28;20040;-92
2021/03/03 03:46:04;;;;;;;31.27;13.43;;;;;;;21.34;16.43;99588.31;5025440;28;20029;-92
2021/03/03 03:48:34;;;;;;;31.70;14.07;;;;;;;21.30;16.30;99589.44;5026204;28;20402;-91
2021/03/03 03:51:06;;;;;;;32.70;15.43;;;;;;;21.38;16.13;99588.34;5026789;28;20060;-92
2021/03/03 03:53:33;;;;;;;33.55;13.07;;;;;;;21.43;16.00;99587.19;5028609;28;20034;-92
2021/03/03 03:55:59;;;;;;;39.55;15.70;;;;;;;21.10;16.58;99585.16;5018523;28;20028;-91
2021/03/03 03:58:26;;;;;;;32.88;13.13;;;;;;;20.86;16.95;99585.59;5022598;28;20046;-91
2021/03/03 04:00:52;;;;;;;31.02;12.18;;;;;;;20.76;17.47;99584.25;5027228;28;20033;-92
2021/03/03 04:03:18;;;;;;;34.10;14.50;;;;;;;20.91;17.14;99586.06;5031183;28;20033;-92
2021/03/03 04:05:47;;;;;;;43.60;14.40;;;;;;;20.90;17.01;99586.44;5026278;28;20087;-92
2021/03/03 04:08:13;;;;;;;34.28;14.98;;;;;;;20.75;17.27;99582.63;5024626;28;20048;-92
2021/03/03 04:10:40;;;;;;;40.25;19.52;;;;;;;20.46;17.84;99586.97;5015825;28;20045;-93
2021/03/03 04:13:06;;;;;;;28.02;13.32;;;;;;;20.49;17.85;99582.63;5027235;28;20033;-92
2021/03/03 04:15:32;;;;;;;41.22;17.83;;;;;;;20.87;17.15;99576.81;5025653;28;20092;-93
2021/03/03 04:17:58;;;;;;;39.33;16.75;;;;;;;20.95;17.05;99580.53;5018520;28;20030;-93
2021/03/03 04:20:24;;;;;;;34.80;14.20;;;;;;;21.23;16.81;99572.59;5027284;28;20026;-93
2021/03/03 04:22:50;;;;;;;38.58;15.13;;;;;;;21.56;16.52;99572.63;5025404;28;20038;-93
2021/03/03 04:25:18;;;;;;;40.65;15.02;;;;;;;21.79;15.95;99569.69;5020840;28;20026;-93
2021/03/03 04:27:44;;;;;;;39.03;15.13;;;;;;;21.72;16.27;99572.38;5029923;28;20037;-93
2021/03/03 04:30:14;;;;;;;35.22;15.07;;;;;;;21.74;15.99;99564.41;5023429;28;20105;-93
2021/03/03 04:32:40;;;;;;;32.75;15.13;;;;;;;21.76;15.60;99553.66;5027543;28;20403;-93
2021/03/03 04:35:07;;;;;;;37.72;14.95;;;;;;;21.75;15.82;99560.44;5028986;28;20473;-93
2021/03/03 04:37:34;;;;;;;29.92;13.10;;;;;;;21.68;15.85;99565.97;5024627;28;20045;-94
2021/03/03 04:40:00;;;;;;;31.85;13.35;;;;;;;21.76;15.90;99562.84;5024744;28;20266;-93
2021/03/03 04:42:27;;;;;;;31.95;13.90;;;;;;;21.97;16.15;99565.09;5019378;28;20033;-93
2021/03/03 04:44:53;;;;;;;37.60;15.02;;;;;;;21.95;15.85;99551.50;5020864;28;20041;-93
2021/03/03 04:47:19;;;;;;;31.17;13.68;;;;;;;22.00;15.74;99553.16;5018708;28;20040;-93
2021/03/03 04:49:45;;;;;;;36.00;14.30;;;;;;;21.82;16.01;99552.13;5017227;28;20034;-93
2021/03/03 04:52:11;;;;;;;37.38;14.95;;;;;;;21.59;16.30;99557.84;5015662;28;20089;-91
2021/03/03 04:54:37;;;;;;;37.65;14.10;;;;;;;21.08;16.75;99552.03;5024626;28;20112;-90
2021/03/03 04:57:04;;;;;;;30.02;14.27;;;;;;;21.08;16.87;99548.44;5028483;28;20056;-91
2021/03/03 04:59:31;;;;;;;35.70;15.63;;;;;;;20.76;17.37;99555.53;5012682;28;20060;-92
2021/03/03 05:01:57;;;;;;;27.45;12.85;;;;;;;20.85;17.25;99554.06;5016494;28;20040;-91
2021/03/03 05:04:24;;;;;;;30.05;12.68;;;;;;;21.22;17.34;99543.03;5025613;28;20038;-92
2021/03/03 05:06:50;;;;;;;38.30;16.02;;;;;;;21.51;16.50;99552.56;5017722;28;20034;-91
2021/03/03 05:09:16;;;;;;;31.77;11.95;;;;;;;21.55;16.18;99545.03;5017830;28;20041;-92
2021/03/03 05:11:43;;;;;;;30.85;12.57;;;;;;;21.63;16.08;99544.75;5015508;28;20029;-91
2021/03/03 05:14:09;;;;;;;24.35;10.18;;;;;;;21.75;16.47;99536.06;5026098;28;20037;-91
2021/03/03 05:16:36;;;;;;;29.70;11.57;;;;;;;21.77;16.14;99542.09;5025502;28;20038;-91
2021/03/03 05:19:02;;;;;;;24.75;12.07;;;;;;;21.38;16.73;99543.63;5027318;28;20040;-91
2021/03/03 05:21:28;;;;;;;33.45;15.55;;;;;;;20.60;17.41;99539.75;5025038;28;20040;-91
2021/03/03 05:23:54;;;;;;;26.50;10.38;;;;;;;20.45;17.53;99535.13;5025911;28;20037;-91
2021/03/03 05:26:20;;;;;;;30.50;12.77;;;;;;;20.44;17.65;99533.50;5023832;28;20169;-90
2021/03/03 05:28:49;;;;;;;28.15;12.38;;;;;;;20.70;17.31;99535.50;5021391;28;20069;-90
2021/03/03 05:31:15;;;;;;;33.17;12.85;;;;;;;20.78;16.98;99531.63;5026742;28;20025;-90
2021/03/03 05:33:43;;;;;;;24.52;11.20;;;;;;;21.00;16.74;99529.94;5026886;28;20481;-91
2021/03/03 05:36:10;;;;;;;21.52;10.00;;;;;;;21.31;16.60;99533.19;5023403;28;20420;-92
2021/03/03 05:38:39;;;;;;;24.50;10.90;;;;;;;21.52;16.11;99527.03;5025416;28;20037;-90
2021/03/03 05:41:07;;;;;;;25.40;11.52;;;;;;;21.68;15.90;99530.41;5029317;28;20030;-88
2021/03/03 05:43:35;;;;;;;28.08;13.02;;;;;;;21.41;16.18;99534.50;5027853;28;20033;-93
2021/03/03 05:46:03;;;;;;;28.10;11.98;;;;;;;21.30;16.65;99533.56;5024435;28;20030;-89
2021/03/03 05:48:43;;;;;;;31.23;13.27;;;;;;;20.80;17.05;99534.03;5028443;28;20072;-93
2021/03/03 05:51:11;;;;;;;24.58;11.27;;;;;;;20.87;17.02;99529.38;5029355;28;20552;-92
2021/03/03 05:53:38;;;;;;;28.73;11.50;;;;;;;21.21;16.98;99536.63;5025416;28;20022;-95
2021/03/03 05:56:14;;;;;;;23.63;10.95;;;;;;;21.67;16.45;99539.19;5025486;28;20108;-92
2021/03/03 05:58:43;;;;;;;27.73;13.60;;;;;;;21.79;16.21;99527.72;5029953;28;20095;-92
2021/03/03 06:01:10;;;;;;;26.40;11.68;;;;;;;21.99;15.98;99534.75;5026386;28;20134;-93
2021/03/03 06:03:47;;;;;;;26.65;11.80;;;;;;;22.17;15.81;99527.31;5035996;28;20408;-92
2021/03/03 06:06:28;;;;;;;28.17;13.88;;;;;;;22.41;15.76;99535.13;5033280;28;20037;-94
2021/03/03 06:08:54;;;;;;;28.38;12.38;;;;;;;22.59;15.53;99527.66;5029750;28;20034;-90
2021/03/03 06:11:20;;;;;;;26.13;12.38;;;;;;;22.64;15.72;99534.91;5015283;28;20129;-92
2021/03/03 06:13:46;;;;;;;30.80;14.07;;;;;;;22.51;15.99;99533.59;5018557;28;20513;-92
2021/03/03 06:16:15;;;;;;;32.95;14.15;;;;;;;22.17;16.50;99532.13;5017483;28;20358;-91
2021/03/03 06:18:42;;;;;;;25.27;12.55;;;;;;;21.99;16.56;99521.56;5016096;28;20031;-86
2021/03/03 06:21:33;;;;;;;26.92;12.48;;;;;;;22.28;16.27;99533.84;5022505;28;20038;-85
2021/03/03 06:24:09;;;;;;;26.88;11.98;;;;;;;22.34;16.50;99521.06;5022027;28;20037;-84
2021/03/03 06:26:52;;;;;;;32.50;12.73;;;;;;;22.63;16.31;99525.75;5022826;28;20034;-86
2021/03/03 06:29:19;;;;;;;25.83;11.02;;;;;;;22.47;16.74;99513.19;5023332;28;20125;-88
2021/03/03 06:31:46;;;;;;;20.50;10.20;;;;;;;22.78;16.46;99514.63;5025386;28;20069;-89
2021/03/03 06:34:24;;;;;;;26.48;12.90;;;;;;;23.00;16.59;99519.16;5064205;28;20040;-89
2021/03/03 06:36:56;;;;;;;29.15;13.82;;;;;;;22.87;16.81;99512.28;5030754;28;20030;-89
2021/03/03 06:39:35;;;;;;;26.92;12.85;;;;;;;22.75;16.95;99516.22;5031799;28;20034;-89
2021/03/03 06:42:08;;;;;;;25.90;11.60;;;;;;;22.94;17.06;99520.72;5030385;28;20493;-89
2021/03/03 06:44:52;;;;;;;26.33;11.93;;;;;;;22.73;17.46;99521.41;5030085;28;20099;-89
2021/03/03 06:47:19;;;;;;;31.58;13.45;;;;;;;22.78;17.48;99521.00;5033178;28;20033;-88
2021/03/03 06:49:49;;;;;;;24.40;10.65;;;;;;;22.76;17.33;99526.22;5028146;28;20041;-88
2021/03/03 06:52:16;;;;;;;21.83;11.23;;;;;;;23.20;17.19;99526.03;5016362;28;20025;-88
2021/03/03 06:54:42;;;;;;;26.27;12.02;;;;;;;23.44;17.31;99522.56;5028405;28;20466;-88
2021/03/03 06:57:12;;;;;;;24.10;10.82;;;;;;;23.59;16.99;99510.22;5045416;28;20093;-88
2021/03/03 06:59:44;;;;;;;21.27;9.95;;;;;;;23.93;16.58;99517.09;5034157;28;20029;-88
2021/03/03 07:02:12;;;;;;;26.02;9.77;;;;;;;24.10;16.26;99525.97;5033006;28;20477;-88
2021/03/03 07:04:38;;;;;;;24.88;10.60;;;;;;;24.29;16.83;99514.34;5030981;28;20118;-88
2021/03/03 07:07:17;;;;;;;21.40;9.60;;;;;;;24.31;16.67;99515.56;5033095;28;20045;-88
2021/03/03 07:09:49;;;;;;;23.95;11.57;;;;;;;24.14;16.97;99512.72;5034968;28;20046;-89
2021/03/03 07:12:20;;;;;;;23.15;10.95;;;;;;;24.18;17.12;99513.56;5032990;28;20033;-88
2021/03/03 07:14:58;;;;;;;21.52;9.98;;;;;;;24.17;17.63;99509.94;5032898;28;20053;-88
2021/03/03 07:17:32;;;;;;;20.90;10.20;;;;;;;24.23;17.37;99507.50;5022911;28;20041;-89
2021/03/03 07:20:07;;;;;;;22.67;11.77;;;;;;;24.33;17.40;99506.72;5033964;28;20087;-88
2021/03/03 07:22:47;;;;;;;22.00;9.55;;;;;;;24.62;17.01;99502.69;5034454;28;20529;-89
2021/03/03 07:25:16;;;;;;;18.52;9.52;;;;;;;24.95;16.96;99502.22;5032576;28;20041;-89
2021/03/03 07:27:43;;;;;;;21.90;10.23;;;;;;;24.61;17.89;99498.28;5031058;28;20095;-89
2021/03/03 07:30:11;;;;;;;18.17;9.25;;;;;;;24.39;18.39;99499.47;5035343;28;20033;-89
2021/03/03 07:32:37;;;;;;;21.67;10.63;;;;;;;24.46;18.07;99505.09;5033509;28;20037;-89
2021/03/03 07:35:06;;;;;;;19.73;10.27;;;;;;;24.65;17.64;99501.88;5033514;28;20053;-89
2021/03/03 07:37:51;;;;;;;19.27;9.05;;;;;;;24.93;17.16;99504.66;5034284;28;20029;-89
2021/03/03 07:40:17;;;;;;;21.33;9.63;;;;;;;25.25;16.92;99496.13;5033854;28;20037;-89
2021/03/03 07:42:56;;;;;;;19.20;9.15;;;;;;;25.29;16.54;99503.31;5034993;28;20436;-89
2021/03/03 07:45:28;;;;;;;18.88;9.07;;;;;;;25.28;16.70;99498.09;5033193;28;20053;-89
2021/03/03 07:47:55;;;;;;;18.75;8.75;;;;;;;25.14;17.38;99501.75;5029256;28;20038;-89
2021/03/03 07:50:23;;;;;;;20.23;9.13;;;;;;;25.09;17.56;99502.19;5032314;28;20036;-89
2021/03/03 07:52:54;;;;;;;18.73;8.88;;;;;;;25.44;17.01;99506.88;5032102;28;20025;-89
2021/03/03 07:55:22;;;;;;;21.40;9.43;;;;;;;24.67;17.51;99496.66;5039108;28;20499;-89
2021/03/03 07:57:50;;;;;;;18.77;8.43;;;;;;;23.86;18.50;99497.44;5026559;28;20037;-88
2021/03/03 08:00:33;;;;;;;19.33;9.68;;;;;;;23.42;18.69;99487.72;5029882;28;20044;-89
2021/03/03 08:02:59;;;;;;;21.00;11.23;;;;;;;22.80;19.78;99487.03;5032740;28;20025;-89
2021/03/03 08:05:37;;;;;;;17.45;7.72;;;;;;;23.74;19.22;99483.81;5032070;28;20116;-89
2021/03/03 08:08:26;;;;;;;16.33;7.63;;;;;;;24.98;18.09;99487.38;5024474;28;20034;-88
2021/03/03 08:11:12;;;;;;;18.63;6.68;;;;;;;25.81;17.00;99483.78;5029532;28;20029;-88
2021/03/03 08:13:39;;;;;;;14.65;7.38;;;;;;;26.22;16.54;99475.44;5036494;28;20124;-88
2021/03/03 08:16:07;;;;;;;16.35;8.05;;;;;;;26.27;15.94;99469.38;5034546;28;20029;-88
2021/03/03 08:18:56;;;;;;;17.02;7.05;;;;;;;26.35;16.59;99462.47;5034620;28;20041;-88
2021/03/03 08:21:25;;;;;;;15.40;8.07;;;;;;;26.67;16.86;99469.41;5034475;28;20033;-88
2021/03/03 08:23:55;;;;;;;17.65;9.30;;;;;;;26.00;16.60;99460.72;5034596;28;20033;-88
2021/03/03 08:26:21;;;;;;;15.68;8.02;;;;;;;25.64;17.35;99465.00;5034316;28;20041;-88
2021/03/03 08:28:54;;;;;;;12.45;6.88;;;;;;;25.87;16.71;99462.44;5033754;28;20033;-88
2021/03/03 08:31:26;;;;;;;16.90;8.73;;;;;;;25.15;17.97;99463.22;5034309;28;20034;-88
2021/03/03 08:33:53;;;;;;;11.80;7.07;;;;;;;25.56;17.29;99458.59;5032986;28;20060;-88
2021/03/03 08:36:23;;;;;;;13.35;6.30;;;;;;;26.06;17.76;99457.06;5033707;28;20463;-88
2021/03/03 08:38:55;;;;;;;13.90;7.22;;;;;;;26.30;17.43;99449.63;5034072;28;20099;-88
2021/03/03 08:41:28;;;;;;;11.32;5.28;;;;;;;26.68;17.21;99448.44;5027185;28;20505;-89
2021/03/03 08:44:10;;;;;;;13.15;7.32;;;;;;;26.86;17.90;99445.47;5035923;28;20064;-88
2021/03/03 08:46:42;;;;;;;10.35;5.68;;;;;;;27.51;16.83;99447.06;5040712;28;20041;-89
2021/03/03 08:49:08;;;;;;;10.88;5.43;;;;;;;27.87;16.48;99439.63;5014197;28;20034;-88
2021/03/03 08:51:44;;;;;;;9.02;4.45;;;;;;;27.93;16.71;99449.25;5028742;28;20132;-88
2021/03/03 08:54:10;;;;;;;8.52;4.63;;;;;;;28.21;15.34;99453.66;5029735;28;20025;-89
2021/03/03 08:56:53;;;;;;;7.43;3.47;;;;;;;28.26;14.91;99444.69;5034029;28;20036;-88
2021/03/03 08:59:40;;;;;;;8.63;4.85;;;;;;;27.85;15.30;99439.28;5029276;28;20041;-89
2021/03/03 09:02:12;;;;;;;7.03;3.85;;;;;;;28.35;16.04;99441.28;5027209;28;20449;-89
2021/03/03 09:04:53;;;;;;;7.20;3.88;;;;;;;27.98;15.83;99434.59;5032206;28;20079;-89
2021/03/03 09:07:29;;;;;;;6.90;3.75;;;;;;;28.00;16.34;99429.38;5033848;28;20026;-89
2021/03/03 09:10:05;;;;;;;8.10;3.78;;;;;;;28.30;15.76;99430.47;5033563;28;20029;-89
2021/03/03 09:12:38;;;;;;;7.00;4.15;;;;;;;28.51;15.70;99430.91;5033307;28;20386;-89
2021/03/03 09:15:08;;;;;;;9.50;4.95;;;;;;;28.65;15.94;99429.84;5033226;28;20481;-89
2021/03/03 09:17:35;;;;;;;7.60;4.22;;;;;;;29.03;15.81;99427.47;5033267;28;20036;-89
2021/03/03 09:20:09;;;;;;;7.13;4.00;;;;;;;28.88;14.58;99423.34;5033137;28;20061;-89
2021/03/03 09:22:39;;;;;;;7.03;3.85;;;;;;;28.46;15.38;99425.75;5032193;28;20049;-89
2021/03/03 09:25:08;;;;;;;5.03;3.10;;;;;;;28.17;15.67;99426.69;5033704;28;20065;-89
2021/03/03 09:27:34;;;;;;;6.35;3.42;;;;;;;27.33;16.09;99424.69;5033809;28;20033;-89
2021/03/03 09:30:00;;;;;;;5.75;2.92;;;;;;;26.60;16.05;99423.59;5032408;28;20029;-89
2021/03/03 09:32:28;;;;;;;4.45;2.67;;;;;;;26.80;15.79;99415.31;5032609;28;20100;-89
2021/03/03 09:34:59;;;;;;;4.88;2.85;;;;;;;26.73;15.35;99414.16;5033383;28;20029;-89
2021/03/03 09:37:25;;;;;;;7.47;2.92;;;;;;;26.68;16.77;99417.44;5028870;28;20034;-89
2021/03/03 09:39:58;;;;;;;5.35;3.00;;;;;;;28.08;16.14;99416.72;5049251;28;20072;-89
2021/03/03 09:42:26;;;;;;;4.18;2.63;;;;;;;28.87;14.75;99410.47;5053297;28;20112;-89
2021/03/03 09:44:59;;;;;;;5.88;2.40;;;;;;;29.41;15.35;99415.34;5046652;28;20021;-89
2021/03/03 09:47:31;;;;;;;4.25;2.67;;;;;;;29.58;15.02;99404.03;5026156;28;20124;-89
2021/03/03 09:49:58;;;;;;;4.40;2.53;;;;;;;29.79;14.55;99403.56;5028273;28;20034;-89
2021/03/03 09:52:33;;;;;;;4.15;2.22;;;;;;;29.08;14.68;99405.13;5047233;28;20021;-89
2021/03/03 09:54:59;;;;;;;4.72;2.70;;;;;;;29.41;14.29;99403.22;5033299;28;20105;-89
2021/03/03 09:57:25;;;;;;;5.15;3.00;;;;;;;28.54;15.34;99407.41;5031770;28;20175;-89
2021/03/03 09:59:54;;;;;;;5.13;2.63;;;;;;;28.55;15.14;99402.56;5032243;28;20037;-89
2021/03/03 10:02:22;;;;;;;4.57;2.53;;;;;;;29.36;14.91;99401.72;5031453;28;20036;-89
2021/03/03 10:04:50;;;;;;;10.32;4.60;;;;;;;28.44;15.23;99399.94;5033000;28;20243;-89
2021/03/03 10:07:22;;;;;;;6.13;3.70;;;;;;;26.97;16.82;99401.03;5030801;28;20034;-89
2021/03/03 10:09:51;;;;;;;4.43;2.42;;;;;;;28.63;14.56;99387.09;5033145;28;20060;-89
2021/03/03 10:12:20;;;;;;;3.95;2.17;;;;;;;28.43;13.99;99383.41;5033058;28;20045;-89
2021/03/03 10:14:52;;;;;;;5.10;2.50;;;;;;;26.70;16.08;99386.00;5034301;28;20040;-89
2021/03/03 10:17:47;;;;;;;4.85;2.67;;;;;;;26.55;16.17;99385.41;5032390;28;20045;-89
2021/03/03 10:20:37;;;;;;;5.30;2.63;;;;;;;27.03;14.18;99385.22;5032773;28;20536;-89
2021/03/03 10:23:12;;;;;;;2.65;1.70;;;;;;;28.73;14.52;99380.41;5031505;28;20036;-89
2021/03/03 10:25:45;;;;;;;4.55;2.53;;;;;;;28.80;13.69;99376.66;5032669;28;20095;-89
2021/03/03 10:28:13;;;;;;;7.85;4.28;;;;;;;27.87;15.08;99368.25;5033427;28;20501;-89
2021/03/03 10:30:46;;;;;;;4.95;1.80;;;;;;;28.69;14.18;99368.41;5036692;28;20504;-89
2021/03/03 10:33:31;;;;;;;2.13;1.50;;;;;;;29.77;13.58;99361.56;5043735;28;20061;-88
2021/03/03 10:36:03;;;;;;;3.22;1.83;;;;;;;29.23;13.71;99361.19;5036470;28;20366;-89
2021/03/03 10:38:31;;;;;;;3.17;1.70;;;;;;;30.21;12.45;99357.16;5032217;28;20029;-88
2021/03/03 10:40:59;;;;;;;2.35;1.30;;;;;;;29.60;13.16;99354.25;5026638;28;20021;-88
2021/03/03 10:43:27;;;;;;;3.47;1.88;;;;;;;28.19;13.60;99351.59;5033611;28;20057;-88
2021/03/03 10:46:12;;;;;;;2.42;1.40;;;;;;;28.49;13.18;99348.59;5016473;28;20076;-88
2021/03/03 10:48:39;;;;;;;3.38;2.05;;;;;;;27.52;14.96;99349.88;5025482;28;20033;-88
2021/03/03 10:51:06;;;;;;;2.67;1.90;;;;;;;26.56;16.10;99339.09;5019973;28;20034;-89
2021/03/03 10:53:59;;;;;;;2.83;1.80;;;;;;;27.15;14.40;99331.09;5030440;28;20486;-88
2021/03/03 10:56:30;;;;;;;2.65;1.80;;;;;;;26.32;15.08;99331.75;5034227;28;20033;-88
2021/03/03 10:58:58;;;;;;;4.57;2.90;;;;;;;26.06;16.34;99329.59;5037161;28;20053;-88
2021/03/03 11:01:41;;;;;;;3.45;1.90;;;;;;;27.05;15.50;99323.56;5036069;28;20040;-88
2021/03/03 11:04:08;;;;;;;4.75;2.00;;;;;;;28.28;13.22;99315.09;5036384;28;20389;-89
2021/03/03 11:06:34;;;;;;;2.15;1.33;;;;;;;28.01;12.51;99311.56;5034745;28;20040;-88
2021/03/03 11:09:02;;;;;;;3.55;1.75;;;;;;;28.26;13.39;99297.00;5035977;28;20112;-88
2021/03/03 11:11:28;;;;;;;3.28;1.98;;;;;;;27.02;13.93;99318.81;5036070;28;20033;-89
2021/03/03 11:13:54;;;;;;;3.90;1.80;;;;;;;26.67;14.79;99305.16;5034203;28;20104;-89
2021/03/03 11:16:21;;;;;;;3.75;2.03;;;;;;;27.18;15.47;99298.44;5036023;28;20065;-88
2021/03/03 11:18:48;;;;;;;3.15;2.03;;;;;;;27.16;14.58;99298.06;5034765;28;20025;-87
2021/03/03 11:21:14;;;;;;;3.70;2.40;;;;;;;27.61;13.84;99290.13;5034736;28;20390;-87
2021/03/03 11:23:41;;;;;;;2.42;1.70;;;;;;;29.33;12.46;99286.59;5034692;28;20386;-87
2021/03/03 11:26:07;;;;;;;4.45;2.42;;;;;;;30.55;12.01;99283.75;5036699;28;20086;-87
2021/03/03 11:28:33;;;;;;;2.42;1.65;;;;;;;28.12;14.32;99289.59;5035209;28;20048;-87
2021/03/03 11:30:59;;;;;;;2.67;1.98;;;;;;;27.65;13.38;99273.91;5033955;28;20194;-87
2021/03/03 11:33:26;;;;;;;4.70;2.47;;;;;;;27.11;14.08;99275.97;5034316;28;20033;-87